Time;durP1;ratioP1;P1;durP2;ratioP2;P2;SDS_P1;SDS_P2;PMS_P1;PMS_P2;Temp;Humidity;BMP_temperature;BMP_pressure;BME280_temperature;BME280_humidity;BME280_pressure;Samples;Min_cycle;Max_cycle;Signal;HPM_P1;HPM_P2
2023/07/21 00:04:13;;;;;;;2.85;2.20;;;19.80;81.80;;;;;;10318709;28;20582;-64
2023/07/21 00:09:14;;;;;;;3.30;2.20;;;19.80;81.80;;;;;;10321409;28;20307;-65
2023/07/21 00:14:16;;;;;;;2.33;2.10;;;19.70;81.80;;;;;;10315787;28;20092;-66
2023/07/21 00:19:17;;;;;;;3.10;2.33;;;19.70;81.80;;;;;;10325468;28;20061;-66
2023/07/21 00:24:18;;;;;;;2.50;2.25;;;19.70;81.90;;;;;;10354671;28;20471;-66
2023/07/21 00:29:19;;;;;;;4.13;2.47;;;19.70;82.00;;;;;;10314713;28;20112;-65
2023/07/21 00:34:24;;;;;;;2.88;2.25;;;19.60;81.90;;;;;;10323544;28;20546;-65
2023/07/21 00:39:25;;;;;;;2.40;2.05;;;19.70;82.00;;;;;;10319001;28;20022;-64
2023/07/21 00:44:25;;;;;;;2.92;2.47;;;19.60;82.00;;;;;;10313840;28;20033;-65
2023/07/21 00:49:26;;;;;;;2.83;2.15;;;19.60;82.10;;;;;;10319903;28;20238;-65
2023/07/21 00:54:27;;;;;;;2.97;2.33;;;19.60;82.20;;;;;;10318829;28;20402;-66
2023/07/21 00:59:27;;;;;;;3.05;2.30;;;19.50;82.10;;;;;;10322599;28;20371;-66
2023/07/21 01:04:30;;;;;;;3.45;2.33;;;19.50;82.20;;;;;;10318395;28;20193;-65
2023/07/21 01:09:33;;;;;;;4.75;2.47;;;19.50;82.30;;;;;;10320777;28;20019;-66
2023/07/21 01:14:36;;;;;;;3.85;2.47;;;19.50;82.30;;;;;;10319265;28;20088;-65
2023/07/21 01:19:37;;;;;;;4.93;2.15;;;19.40;82.30;;;;;;10320211;28;20038;-65
2023/07/21 01:24:48;;;;;;;2.28;2.08;;;19.40;82.40;;;;;;10323969;28;20431;-66
2023/07/21 01:29:51;;;;;;;4.78;2.42;;;19.40;82.50;;;;;;10330451;28;20022;-65
2023/07/21 01:34:53;;;;;;;3.70;2.38;;;19.40;82.50;;;;;;10324485;28;20022;-65
2023/07/21 01:39:55;;;;;;;2.65;2.10;;;19.40;82.50;;;;;;10323961;28;20411;-65
2023/07/21 01:44:56;;;;;;;2.47;2.00;;;19.30;82.60;;;;;;10319960;28;20230;-65
2023/07/21 01:49:58;;;;;;;4.15;2.63;;;19.30;83.20;;;;;;10320564;28;20014;-65
2023/07/21 01:55:21;;;;;;;3.75;2.50;;;19.30;82.60;;;;;;10319400;28;20034;-65
2023/07/21 02:00:22;;;;;;;3.92;2.30;;;19.30;82.70;;;;;;10324791;28;20026;-65
2023/07/21 02:05:25;;;;;;;4.97;2.80;;;19.30;82.70;;;;;;10317919;28;20046;-65
2023/07/21 02:10:25;;;;;;;2.63;2.30;;;19.30;82.80;;;;;;10319562;28;20034;-65
2023/07/21 02:15:26;;;;;;;3.97;2.85;;;19.30;82.90;;;;;;10321527;28;20433;-66
2023/07/21 02:20:26;;;;;;;3.70;2.47;;;19.30;83.00;;;;;;10324991;28;20068;-66
2023/07/21 02:25:27;;;;;;;2.65;2.20;;;19.20;82.90;;;;;;10321191;28;20027;-66
2023/07/21 02:30:29;;;;;;;3.72;2.60;;;19.20;83.00;;;;;;10315972;28;20011;-65
2023/07/21 02:35:30;;;;;;;4.55;2.33;;;19.20;83.00;;;;;;10317342;28;20018;-65
2023/07/21 02:40:31;;;;;;;4.85;2.40;;;19.20;83.10;;;;;;10318010;28;20391;-66
2023/07/21 02:45:32;;;;;;;4.10;2.70;;;19.20;83.10;;;;;;10317606;28;20049;-66
2023/07/21 02:50:33;;;;;;;3.42;2.70;;;19.20;83.20;;;;;;10317470;28;20109;-65
2023/07/21 02:55:34;;;;;;;3.67;2.40;;;19.10;83.10;;;;;;10317694;28;20057;-65
2023/07/21 03:00:34;;;;;;;3.60;2.60;;;19.10;83.20;;;;;;10320484;28;20030;-65
2023/07/21 03:05:35;;;;;;;4.30;2.72;;;19.10;83.30;;;;;;10317336;28;20042;-66
2023/07/21 03:10:36;;;;;;;3.47;2.97;;;19.10;83.30;;;;;;10329427;28;20021;-65
2023/07/21 03:15:36;;;;;;;4.00;2.72;;;19.00;83.30;;;;;;10327204;28;20042;-65
2023/07/21 03:20:37;;;;;;;3.58;2.58;;;19.00;83.30;;;;;;10327075;28;20498;-65
2023/07/21 03:25:46;;;;;;;3.38;2.47;;;19.00;83.40;;;;;;10320719;28;20125;-66
2023/07/21 03:30:56;;;;;;;4.53;3.05;;;19.00;83.40;;;;;;10320174;28;20034;-65
2023/07/21 03:35:59;;;;;;;3.85;2.80;;;19.00;83.50;;;;;;10322636;28;20027;-65
2023/07/21 03:41:05;;;;;;;4.10;2.70;;;19.00;83.50;;;;;;10324591;28;20027;-65
2023/07/21 03:46:06;;;;;;;3.45;2.70;;;19.00;83.60;;;;;;10324687;28;20022;-65
2023/07/21 03:51:07;;;;;;;4.50;2.92;;;18.90;83.50;;;;;;10323171;28;20023;-66
2023/07/21 03:56:08;;;;;;;4.43;2.60;;;18.90;83.60;;;;;;10324779;28;20053;-66
2023/07/21 04:01:08;;;;;;;4.15;3.15;;;18.90;83.60;;;;;;10321857;28;20034;-66
2023/07/21 04:06:10;;;;;;;3.53;2.88;;;18.90;83.60;;;;;;10322414;28;20022;-64
2023/07/21 04:11:10;;;;;;;3.78;2.90;;;18.90;83.70;;;;;;10320369;28;20030;-66
2023/07/21 04:16:14;;;;;;;4.10;3.13;;;18.90;83.70;;;;;;10323973;28;20030;-65
2023/07/21 04:21:14;;;;;;;5.13;4.10;;;18.90;83.70;;;;;;10326477;28;20073;-65
2023/07/21 04:26:16;;;;;;;4.28;3.30;;;18.80;83.60;;;;;;10322491;28;20034;-66
2023/07/21 04:31:21;;;;;;;4.93;3.13;;;18.90;83.70;;;;;;10325775;28;20026;-65
2023/07/21 04:36:22;;;;;;;5.13;3.25;;;18.90;83.70;;;;;;10319242;28;20023;-66
2023/07/21 04:41:23;;;;;;;5.72;3.17;;;18.90;83.80;;;;;;10328820;28;20029;-66
2023/07/21 04:46:24;;;;;;;5.03;3.42;;;18.80;83.70;;;;;;10333242;28;20017;-66
2023/07/21 04:51:25;;;;;;;4.13;3.00;;;18.80;83.70;;;;;;10334892;28;20022;-65
2023/07/21 04:56:26;;;;;;;4.88;3.03;;;18.80;83.70;;;;;;10332907;28;20018;-66
2023/07/21 05:01:27;;;;;;;5.68;3.67;;;18.80;83.70;;;;;;10329780;28;20028;-65
2023/07/21 05:06:28;;;;;;;3.97;3.38;;;18.80;83.80;;;;;;10333185;28;20014;-65
2023/07/21 05:11:29;;;;;;;5.55;3.97;;;18.80;83.90;;;;;;10324594;28;20026;-66
2023/07/21 05:16:30;;;;;;;5.20;3.40;;;18.80;83.90;;;;;;10329122;28;20034;-65
2023/07/21 05:21:31;;;;;;;4.68;3.05;;;18.80;83.90;;;;;;10340725;28;20026;-65
2023/07/21 05:26:35;;;;;;;5.38;3.70;;;18.70;83.90;;;;;;10321954;28;20029;-66
2023/07/21 05:31:36;;;;;;;5.10;3.10;;;18.80;84.00;;;;;;10337938;28;20482;-64
2023/07/21 05:36:37;;;;;;;4.32;3.30;;;18.70;83.90;;;;;;10338375;28;20045;-65
2023/07/21 05:41:38;;;;;;;4.45;3.15;;;18.70;84.00;;;;;;10322220;28;20372;-65
2023/07/21 05:46:39;;;;;;;5.10;3.95;;;18.70;84.00;;;;;;10327273;28;20114;-65
2023/07/21 05:51:39;;;;;;;7.72;3.90;;;18.70;84.10;;;;;;10329052;28;20084;-65
2023/07/21 05:56:40;;;;;;;4.60;3.58;;;18.70;84.10;;;;;;10324112;28;20026;-65
2023/07/21 06:01:41;;;;;;;6.70;4.15;;;18.70;84.10;;;;;;10313708;28;20483;-66
2023/07/21 06:06:41;;;;;;;5.50;3.78;;;18.70;84.10;;;;;;10312560;28;20026;-66
2023/07/21 06:11:42;;;;;;;5.72;4.18;;;18.70;84.10;;;;;;10319403;28;20509;-65
2023/07/21 06:16:42;;;;;;;5.70;3.63;;;18.70;84.10;;;;;;10321433;28;20434;-65
2023/07/21 06:21:43;;;;;;;4.85;3.58;;;18.80;84.10;;;;;;10318238;28;20033;-64
2023/07/21 06:26:44;;;;;;;5.78;4.30;;;18.70;84.10;;;;;;10323037;28;20517;-64
2023/07/21 06:31:44;;;;;;;4.55;3.78;;;18.80;84.20;;;;;;10313905;28;20142;-64
2023/07/21 06:36:45;;;;;;;7.07;3.75;;;18.80;84.10;;;;;;10316818;28;20038;-65
2023/07/21 06:41:46;;;;;;;5.00;3.65;;;18.80;84.10;;;;;;10315438;28;20415;-64
2023/07/21 06:46:52;;;;;;;5.75;3.90;;;18.80;84.00;;;;;;10325958;28;20341;-65
2023/07/21 06:51:52;;;;;;;5.03;3.63;;;18.80;84.00;;;;;;10322997;28;20053;-65
2023/07/21 06:56:53;;;;;;;6.88;3.75;;;18.80;84.00;;;;;;10320574;28;20719;-63
2023/07/21 07:01:55;;;;;;;5.90;4.07;;;18.90;84.00;;;;;;10324168;28;20046;-65
2023/07/21 07:06:55;;;;;;;4.88;3.88;;;18.90;84.00;;;;;;10313216;28;20465;-64
2023/07/21 07:11:57;;;;;;;5.07;4.00;;;18.90;83.90;;;;;;10316475;28;20037;-64
2023/07/21 07:16:57;;;;;;;6.65;4.30;;;18.90;83.90;;;;;;10314183;28;20030;-65
2023/07/21 07:21:58;;;;;;;6.93;3.90;;;18.90;83.90;;;;;;10314043;28;20038;-65
2023/07/21 07:26:59;;;;;;;5.65;4.30;;;19.00;83.80;;;;;;10323065;28;20022;-65
2023/07/21 07:31:59;;;;;;;7.70;4.38;;;19.00;83.70;;;;;;10316238;28;20113;-65
2023/07/21 07:37:00;;;;;;;5.55;4.28;;;19.10;83.70;;;;;;10315287;28;20023;-64
2023/07/21 07:42:00;;;;;;;6.25;4.20;;;19.10;83.70;;;;;;10317678;28;20038;-64
2023/07/21 07:47:01;;;;;;;5.00;3.92;;;19.10;83.70;;;;;;10321070;28;20081;-64
2023/07/21 07:52:02;;;;;;;4.60;3.58;;;19.10;83.60;;;;;;10323451;28;20452;-64
2023/07/21 07:57:02;;;;;;;6.40;4.68;;;19.20;83.80;;;;;;10322994;28;20118;-63
2023/07/21 08:02:03;;;;;;;5.07;3.80;;;19.20;83.80;;;;;;10325079;28;20019;-63
2023/07/21 08:07:04;;;;;;;6.57;3.80;;;19.20;83.70;;;;;;10329249;28;20048;-64
2023/07/21 08:12:05;;;;;;;5.22;3.40;;;19.30;83.70;;;;;;10330952;28;20084;-66
2023/07/21 08:17:06;;;;;;;4.15;2.08;;;19.30;83.70;;;;;;10330842;28;20118;-66
2023/07/21 08:22:06;;;;;;;2.47;1.40;;;19.30;83.60;;;;;;10328605;28;20022;-65
2023/07/21 08:27:08;;;;;;;2.55;1.90;;;19.40;83.50;;;;;;10325395;28;20038;-66
2023/07/21 08:32:09;;;;;;;1.45;1.30;;;19.40;83.30;;;;;;10321014;28;20018;-66
2023/07/21 08:37:10;;;;;;;4.18;1.67;;;19.40;83.30;;;;;;10321176;28;20464;-65
2023/07/21 08:42:12;;;;;;;2.60;1.63;;;19.50;83.50;;;;;;10325495;28;20027;-65
2023/07/21 08:47:13;;;;;;;2.65;1.73;;;19.50;83.10;;;;;;10321489;28;20030;-65
2023/07/21 08:52:14;;;;;;;2.40;1.70;;;19.50;83.20;;;;;;10323752;28;20446;-67
2023/07/21 08:57:15;;;;;;;3.38;1.63;;;19.60;83.00;;;;;;10312964;28;20077;-67
2023/07/21 09:02:16;;;;;;;1.77;1.00;;;19.60;83.00;;;;;;10312885;28;20034;-66
2023/07/21 09:07:17;;;;;;;6.70;1.40;;;19.60;82.40;;;;;;10321913;28;20558;-67
2023/07/21 09:12:18;;;;;;;1.50;0.80;;;19.60;81.90;;;;;;10318295;28;20113;-67
2023/07/21 09:17:18;;;;;;;1.40;0.80;;;19.80;81.60;;;;;;10314131;28;20483;-67
2023/07/21 09:22:23;;;;;;;3.20;1.30;;;19.90;81.10;;;;;;10316882;28;20065;-67
2023/07/21 09:27:24;;;;;;;1.30;1.20;;;20.00;80.30;;;;;;10318588;28;20030;-67
2023/07/21 09:32:24;;;;;;;1.70;1.40;;;20.10;80.40;;;;;;10318616;28;20019;-66
2023/07/21 09:37:26;;;;;;;2.17;1.10;;;20.30;80.20;;;;;;10321054;28;20105;-67
2023/07/21 09:42:29;;;;;;;2.40;1.42;;;20.40;79.80;;;;;;10319389;28;20109;-66
2023/07/21 09:47:31;;;;;;;3.15;1.58;;;20.60;80.00;;;;;;10312613;28;20043;-67
2023/07/21 09:52:38;;;;;;;2.40;1.20;;;20.80;79.60;;;;;;10310484;28;20069;-67
2023/07/21 09:57:42;;;;;;;1.73;1.30;;;20.80;79.60;;;;;;10306813;28;20031;-66
2023/07/21 10:02:49;;;;;;;2.60;1.30;;;20.80;80.20;;;;;;10315611;28;20037;-66
2023/07/21 10:07:50;;;;;;;1.73;1.40;;;20.60;80.40;;;;;;10315747;28;20045;-66
2023/07/21 10:12:52;;;;;;;2.90;1.23;;;20.40;81.50;;;;;;10317674;28;20045;-66
2023/07/21 10:17:57;;;;;;;2.33;1.42;;;20.30;81.20;;;;;;10314295;28;20038;-67
2023/07/21 10:22:58;;;;;;;1.95;1.00;;;20.40;81.10;;;;;;10314002;28;20022;-66
2023/07/21 10:28:03;;;;;;;1.65;1.20;;;20.50;80.80;;;;;;10314766;28;20073;-66
2023/07/21 10:33:11;;;;;;;1.85;1.17;;;20.70;80.00;;;;;;10309128;28;20026;-66
2023/07/21 10:38:15;;;;;;;1.52;1.10;;;20.80;79.40;;;;;;10313615;28;20093;-67
2023/07/21 10:43:16;;;;;;;2.60;1.10;;;21.00;79.40;;;;;;10316835;28;20049;-67
2023/07/21 10:48:17;;;;;;;0.98;0.85;;;21.00;78.30;;;;;;10305739;28;20117;-66
2023/07/21 10:53:18;;;;;;;1.95;1.00;;;21.10;78.20;;;;;;10294704;28;20037;-66
2023/07/21 10:58:19;;;;;;;1.00;0.80;;;21.10;78.50;;;;;;10317467;28;20414;-66
2023/07/21 11:03:20;;;;;;;1.15;0.88;;;21.20;78.20;;;;;;10318699;28;20022;-66
2023/07/21 11:08:28;;;;;;;2.40;0.93;;;21.20;77.80;;;;;;10315253;28;20011;-67
2023/07/21 11:13:29;;;;;;;;;;;21.20;77.10;;;;;;10302442;28;20490;-66
2023/07/21 11:18:30;;;;;;;1.20;0.80;;;21.30;73.80;;;;;;10320691;28;19913;-66
2023/07/21 11:23:31;;;;;;;2.90;0.90;;;21.30;76.70;;;;;;10314139;28;20022;-65
2023/07/21 11:28:33;;;;;;;2.35;1.00;;;21.40;76.20;;;;;;10317016;28;20057;-65
2023/07/21 11:33:48;;;;;;;1.73;1.00;;;21.60;75.20;;;;;;10320374;28;20539;-66
2023/07/21 11:39:04;;;;;;;1.15;0.82;;;21.70;73.90;;;;;;10328352;28;20494;-66
2023/07/21 11:44:08;;;;;;;1.67;0.88;;;21.70;73.40;;;;;;10326790;28;20101;-66
2023/07/21 11:49:14;;;;;;;1.05;0.65;;;21.80;74.30;;;;;;10326005;28;20021;-65
2023/07/21 11:54:41;;;;;;;1.35;1.00;;;21.80;74.30;;;;;;10324488;28;20034;-66
2023/07/21 11:59:42;;;;;;;1.52;1.05;;;21.90;73.90;;;;;;10312311;28;20387;-66
2023/07/21 12:04:42;;;;;;;1.52;0.90;;;21.90;74.60;;;;;;10324164;28;20026;-67
2023/07/21 12:09:43;;;;;;;2.80;1.20;;;22.10;74.40;;;;;;10332005;28;20491;-66
2023/07/21 12:14:44;;;;;;;1.65;0.90;;;22.20;74.10;;;;;;10321048;28;20085;-67
2023/07/21 12:19:45;;;;;;;2.20;1.10;;;22.30;74.30;;;;;;10323880;28;20382;-66
2023/07/21 12:24:46;;;;;;;1.70;1.48;;;22.40;74.30;;;;;;10318356;28;20084;-67
2023/07/21 12:29:46;;;;;;;1.10;1.00;;;22.40;74.20;;;;;;10321324;28;20446;-66
2023/07/21 12:34:47;;;;;;;1.20;1.02;;;22.30;74.50;;;;;;10322961;28;20026;-66
2023/07/21 12:39:49;;;;;;;1.75;1.30;;;22.30;74.30;;;;;;10312899;28;20502;-66
2023/07/21 12:44:50;;;;;;;2.42;1.20;;;22.20;74.30;;;;;;10317559;28;20062;-66
2023/07/21 12:49:50;;;;;;;2.75;1.00;;;22.10;74.40;;;;;;10325042;28;20101;-66
2023/07/21 12:54:51;;;;;;;2.38;1.38;;;21.90;74.40;;;;;;10323901;28;20541;-66
2023/07/21 12:59:51;;;;;;;1.38;0.82;;;21.60;74.50;;;;;;10320293;28;20036;-66
2023/07/21 13:04:52;;;;;;;3.00;1.20;;;21.20;75.10;;;;;;10322199;28;20158;-64
2023/07/21 13:09:53;;;;;;;3.10;1.10;;;20.80;76.00;;;;;;10323549;28;20034;-63
2023/07/21 13:14:53;;;;;;;3.80;1.35;;;20.70;76.90;;;;;;10317417;28;20153;-63
2023/07/21 13:19:55;;;;;;;2.08;1.17;;;20.70;77.80;;;;;;10316746;28;20026;-63
2023/07/21 13:24:55;;;;;;;2.05;1.25;;;20.70;77.90;;;;;;10315824;28;20471;-64
2023/07/21 13:29:56;;;;;;;1.77;1.25;;;20.80;78.10;;;;;;10315946;28;20022;-65
2023/07/21 13:34:57;;;;;;;2.95;1.30;;;20.70;78.20;;;;;;10318793;28;20029;-65
2023/07/21 13:39:58;;;;;;;4.00;1.77;;;20.80;78.60;;;;;;10315242;28;20023;-63
2023/07/21 13:44:59;;;;;;;2.15;1.27;;;20.80;78.80;;;;;;10315693;28;20061;-63
2023/07/21 13:50:00;;;;;;;1.90;1.30;;;20.80;79.00;;;;;;10314827;28;20578;-63
2023/07/21 13:55:00;;;;;;;2.45;1.60;;;20.80;79.20;;;;;;10321482;28;20106;-69
2023/07/21 14:00:01;;;;;;;2.38;2.08;;;20.90;79.80;;;;;;10320397;28;20032;-69
2023/07/21 14:05:02;;;;;;;2.88;1.90;;;20.70;81.20;;;;;;10317553;28;20030;-68
2023/07/21 14:10:03;;;;;;;3.25;2.30;;;20.60;82.30;;;;;;10319340;28;20022;-69
2023/07/21 14:15:05;;;;;;;4.43;2.30;;;20.60;82.70;;;;;;10318493;28;20040;-69
2023/07/21 14:20:09;;;;;;;3.92;1.83;;;20.40;82.80;;;;;;10321250;28;20073;-69
2023/07/21 14:25:10;;;;;;;3.50;2.15;;;20.20;82.90;;;;;;10322349;28;20096;-70
2023/07/21 14:30:11;;;;;;;3.22;2.08;;;20.10;83.20;;;;;;10317152;28;20074;-70
2023/07/21 14:35:12;;;;;;;2.80;1.90;;;20.10;83.20;;;;;;10316588;28;20034;-65
2023/07/21 14:40:14;;;;;;;2.75;1.92;;;19.90;83.60;;;;;;10318594;28;20030;-67
2023/07/21 14:45:17;;;;;;;2.45;1.83;;;19.90;84.30;;;;;;10315155;28;20113;-67
2023/07/21 14:50:18;;;;;;;1.88;1.48;;;20.00;84.60;;;;;;10315935;28;20027;-68
2023/07/21 14:55:19;;;;;;;2.97;1.48;;;19.90;84.50;;;;;;10347749;28;20382;-68
2023/07/21 15:00:22;;;;;;;4.75;1.55;;;20.20;84.60;;;;;;10322735;28;20027;-67
2023/07/21 15:05:23;;;;;;;3.08;1.67;;;20.20;84.50;;;;;;10323450;28;20034;-67
2023/07/21 15:10:23;;;;;;;1.95;1.63;;;20.20;84.70;;;;;;10331845;28;20051;-67
2023/07/21 15:15:24;;;;;;;3.53;1.73;;;20.30;84.80;;;;;;10317416;28;20038;-66
2023/07/21 15:20:25;;;;;;;3.42;1.88;;;20.30;84.90;;;;;;10334889;28;20036;-68
2023/07/21 15:25:27;;;;;;;3.42;2.10;;;20.30;85.10;;;;;;10317457;28;20046;-66
2023/07/21 15:30:28;;;;;;;5.85;2.08;;;20.30;85.40;;;;;;10318084;28;20097;-67
2023/07/21 15:35:29;;;;;;;3.45;2.15;;;20.20;85.50;;;;;;10321386;28;20031;-67
2023/07/21 15:40:29;;;;;;;2.90;1.90;;;20.30;85.70;;;;;;10321309;28;20092;-67
2023/07/21 15:45:30;;;;;;;4.72;2.30;;;20.30;85.80;;;;;;10325878;28;20027;-67
2023/07/21 15:50:30;;;;;;;3.90;2.05;;;20.30;85.90;;;;;;10315560;28;20049;-67
2023/07/21 15:55:31;;;;;;;3.17;2.30;;;20.30;85.90;;;;;;10319722;28;20058;-67
2023/07/21 16:00:32;;;;;;;3.45;2.17;;;20.30;85.70;;;;;;10325554;28;20038;-68
2023/07/21 16:05:36;;;;;;;4.43;2.13;;;20.40;85.60;;;;;;10325829;28;20105;-66
2023/07/21 16:10:36;;;;;;;4.53;3.35;;;20.50;85.40;;;;;;10321027;28;20094;-67
2023/07/21 16:15:38;;;;;;;5.25;3.38;;;20.40;85.30;;;;;;10328729;28;20034;-68
2023/07/21 16:20:38;;;;;;;4.72;3.20;;;20.50;85.20;;;;;;10325612;28;20069;-69
2023/07/21 16:25:39;;;;;;;5.63;2.92;;;20.50;85.20;;;;;;10327105;28;20472;-68
2023/07/21 16:30:41;;;;;;;4.90;2.60;;;20.50;85.30;;;;;;10320716;28;20093;-67
2023/07/21 16:35:41;;;;;;;3.80;2.55;;;20.50;85.40;;;;;;10325997;28;20046;-68
2023/07/21 16:40:42;;;;;;;6.55;3.35;;;20.50;85.40;;;;;;10328114;28;20038;-68
2023/07/21 16:45:44;;;;;;;9.60;3.40;;;20.60;85.50;;;;;;10317254;28;20035;-67
2023/07/21 16:50:44;;;;;;;4.38;2.67;;;20.50;85.40;;;;;;10313389;28;20053;-68
2023/07/21 16:55:45;;;;;;;6.25;3.80;;;20.50;85.40;;;;;;10320133;28;20456;-68
2023/07/21 17:00:46;;;;;;;6.18;4.30;;;20.40;85.70;;;;;;10326932;28;20031;-68
2023/07/21 17:05:47;;;;;;;6.63;4.10;;;20.40;86.00;;;;;;10334805;28;20516;-68
2023/07/21 17:10:47;;;;;;;5.45;3.78;;;20.40;86.10;;;;;;10326033;28;20110;-68
2023/07/21 17:15:48;;;;;;;4.97;3.65;;;20.40;86.20;;;;;;10329710;28;20218;-68
2023/07/21 17:20:50;;;;;;;6.10;4.05;;;20.40;86.20;;;;;;10324361;28;20026;-68
2023/07/21 17:25:50;;;;;;;6.57;4.00;;;20.40;86.30;;;;;;10321426;28;20030;-67
2023/07/21 17:30:51;;;;;;;5.93;4.00;;;20.40;86.10;;;;;;10323046;28;20087;-68
2023/07/21 17:35:52;;;;;;;6.18;4.13;;;20.40;86.20;;;;;;10324759;28;20121;-68
2023/07/21 17:41:01;;;;;;;5.53;3.70;;;20.40;86.30;;;;;;10317320;28;20447;-68
2023/07/21 17:46:02;;;;;;;5.40;3.63;;;20.40;86.50;;;;;;10323165;28;20023;-68
2023/07/21 17:51:05;;;;;;;6.28;4.15;;;20.40;86.30;;;;;;10331402;28;20037;-67
2023/07/21 17:56:06;;;;;;;5.55;4.20;;;20.40;86.20;;;;;;10320384;28;20038;-67
2023/07/21 18:01:07;;;;;;;10.45;5.03;;;20.40;86.30;;;;;;10320550;28;20121;-69
2023/07/21 18:06:07;;;;;;;11.32;5.40;;;20.30;87.10;;;;;;10324561;28;20034;-66
2023/07/21 18:11:08;;;;;;;10.15;4.65;;;20.00;88.00;;;;;;10324813;28;20019;-67
2023/07/21 18:16:14;;;;;;;15.80;6.35;;;19.90;88.40;;;;;;10328539;28;20512;-66
2023/07/21 18:21:15;;;;;;;12.10;5.57;;;19.90;88.50;;;;;;10321708;28;20049;-66
2023/07/21 18:26:15;;;;;;;7.60;4.82;;;19.90;88.50;;;;;;10353184;28;20027;-66
2023/07/21 18:31:16;;;;;;;12.68;5.53;;;19.90;88.50;;;;;;10326205;28;20052;-66
2023/07/21 18:36:19;;;;;;;8.95;5.22;;;20.00;88.50;;;;;;10323810;28;20080;-66
2023/07/21 18:41:21;;;;;;;8.05;5.30;;;20.00;88.40;;;;;;10320115;28;20031;-68
2023/07/21 18:46:22;;;;;;;10.68;5.75;;;20.00;88.30;;;;;;10317908;28;20498;-66
2023/07/21 18:51:23;;;;;;;8.52;5.28;;;20.00;88.30;;;;;;10321796;28;20033;-67
2023/07/21 18:56:23;;;;;;;10.10;4.70;;;20.00;88.30;;;;;;10320518;28;20030;-66
2023/07/21 19:01:29;;;;;;;10.30;6.22;;;20.00;88.30;;;;;;10317109;28;20037;-67
2023/07/21 19:06:30;;;;;;;12.07;6.72;;;20.00;88.30;;;;;;10310730;28;20015;-66
2023/07/21 19:11:30;;;;;;;7.05;4.78;;;19.90;88.20;;;;;;10308813;28;20117;-66
2023/07/21 19:16:31;;;;;;;8.98;4.50;;;19.90;88.20;;;;;;10319885;28;20376;-66
2023/07/21 19:21:32;;;;;;;7.80;3.47;;;19.90;88.20;;;;;;10323702;28;20022;-65
2023/07/21 19:26:33;;;;;;;8.52;3.90;;;19.90;88.20;;;;;;10324665;28;20026;-66
2023/07/21 19:31:33;;;;;;;7.57;3.63;;;19.80;88.10;;;;;;10322846;28;20029;-65
2023/07/21 19:36:34;;;;;;;6.95;3.25;;;19.80;88.10;;;;;;10318377;28;20495;-66
2023/07/21 19:41:35;;;;;;;7.88;4.70;;;19.80;88.20;;;;;;10317027;28;20022;-65
2023/07/21 19:46:35;;;;;;;7.22;4.07;;;19.70;88.10;;;;;;10317253;28;20026;-66
2023/07/21 19:51:37;;;;;;;5.07;3.35;;;19.70;88.00;;;;;;10325416;28;20014;-65
2023/07/21 19:56:42;;;;;;;8.43;3.80;;;19.70;88.00;;;;;;10322194;28;20041;-66
2023/07/21 20:01:43;;;;;;;9.02;5.32;;;19.60;88.00;;;;;;10321608;28;20029;-68
2023/07/21 20:06:44;;;;;;;6.47;3.97;;;19.60;87.80;;;;;;10306042;28;20034;-69
2023/07/21 20:11:44;;;;;;;7.63;4.00;;;19.60;88.00;;;;;;10320372;28;20026;-67
2023/07/21 20:16:45;;;;;;;6.63;3.50;;;19.50;88.00;;;;;;10315767;28;20459;-68
2023/07/21 20:21:45;;;;;;;6.40;3.80;;;19.50;87.90;;;;;;10320992;28;20065;-68
2023/07/21 20:26:46;;;;;;;7.88;4.55;;;19.50;88.00;;;;;;10320451;28;20549;-68
2023/07/21 20:31:47;;;;;;;10.05;4.40;;;19.50;88.00;;;;;;10320262;28;20059;-68
2023/07/21 20:36:47;;;;;;;8.90;3.45;;;19.40;87.80;;;;;;10315162;28;20033;-69
2023/07/21 20:41:48;;;;;;;7.05;3.65;;;19.40;88.00;;;;;;10322328;28;20046;-69
2023/07/21 20:46:49;;;;;;;8.30;3.22;;;19.40;87.80;;;;;;10320471;28;20499;-69
2023/07/21 20:51:50;;;;;;;7.05;3.20;;;19.40;87.80;;;;;;10320163;28;20910;-68
2023/07/21 20:56:50;;;;;;;5.55;3.33;;;19.30;87.80;;;;;;10316670;28;20031;-68
2023/07/21 21:01:51;;;;;;;6.57;3.05;;;19.30;87.90;;;;;;10316551;28;20022;-69
2023/07/21 21:06:51;;;;;;;7.25;3.17;;;19.30;87.90;;;;;;10315956;28;20070;-68
2023/07/21 21:11:52;;;;;;;6.95;3.35;;;19.30;87.80;;;;;;10318847;28;20022;-68
2023/07/21 21:16:53;;;;;;;6.97;3.20;;;19.20;87.70;;;;;;10316308;28;20133;-68
2023/07/21 21:21:53;;;;;;;5.00;3.10;;;19.20;87.70;;;;;;10351972;28;20026;-68
2023/07/21 21:26:54;;;;;;;6.00;3.40;;;19.20;87.70;;;;;;10318719;28;20027;-68
2023/07/21 21:31:54;;;;;;;9.40;3.20;;;19.10;87.60;;;;;;10317549;28;20034;-69
2023/07/21 21:36:55;;;;;;;8.05;3.08;;;19.10;87.50;;;;;;10318633;28;20046;-68
2023/07/21 21:41:56;;;;;;;5.50;3.38;;;19.10;87.60;;;;;;10321899;28;20541;-68
2023/07/21 21:46:57;;;;;;;4.95;3.15;;;19.10;87.60;;;;;;10322423;28;20463;-68
2023/07/21 21:51:57;;;;;;;6.10;3.28;;;19.10;87.50;;;;;;10317665;28;20027;-68
2023/07/21 21:56:58;;;;;;;5.18;3.08;;;19.10;87.50;;;;;;10320015;28;20556;-69
2023/07/21 22:01:58;;;;;;;7.65;3.60;;;19.00;87.40;;;;;;10324013;28;20137;-68
2023/07/21 22:07:01;;;;;;;5.32;3.08;;;19.00;87.40;;;;;;10326760;28;20045;-68
2023/07/21 22:12:02;;;;;;;5.00;2.88;;;19.00;87.50;;;;;;10326287;28;20037;-68
2023/07/21 22:17:04;;;;;;;4.40;2.97;;;19.00;87.50;;;;;;10316433;28;20030;-68
2023/07/21 22:22:05;;;;;;;5.10;3.08;;;18.90;87.30;;;;;;10314622;28;20124;-69
2023/07/21 22:27:06;;;;;;;8.40;3.20;;;18.90;87.30;;;;;;10316862;28;20136;-68
2023/07/21 22:32:06;;;;;;;6.97;3.67;;;18.90;87.30;;;;;;10321174;28;20026;-68
2023/07/21 22:37:07;;;;;;;7.30;4.00;;;18.90;87.30;;;;;;10316857;28;20494;-69
2023/07/21 22:42:08;;;;;;;6.60;3.55;;;18.80;87.10;;;;;;10317868;28;20021;-68
2023/07/21 22:47:08;;;;;;;7.72;3.80;;;18.80;87.20;;;;;;10344969;28;20018;-68
2023/07/21 22:52:09;;;;;;;6.40;3.78;;;18.80;87.20;;;;;;10319481;28;20105;-68
2023/07/21 22:57:09;;;;;;;7.50;3.95;;;18.80;87.30;;;;;;10308094;28;20030;-68
2023/07/21 23:02:10;;;;;;;7.70;4.05;;;18.80;87.40;;;;;;10322231;28;20293;-68
2023/07/21 23:07:11;;;;;;;7.28;3.50;;;18.80;87.40;;;;;;10319620;28;20569;-68
2023/07/21 23:12:11;;;;;;;6.88;3.67;;;18.70;87.50;;;;;;10325145;28;20018;-68
2023/07/21 23:17:12;;;;;;;8.93;4.10;;;18.70;87.50;;;;;;10321425;28;20452;-68
2023/07/21 23:22:12;;;;;;;7.25;3.72;;;18.70;87.50;;;;;;10322198;28;20022;-68
2023/07/21 23:27:13;;;;;;;9.45;4.07;;;18.70;87.50;;;;;;10327806;28;20026;-69
2023/07/21 23:32:14;;;;;;;7.57;4.18;;;18.70;87.40;;;;;;10325399;28;20022;-68
2023/07/21 23:37:14;;;;;;;8.65;3.70;;;18.60;87.30;;;;;;10318199;28;20037;-68
2023/07/21 23:42:15;;;;;;;9.27;4.35;;;18.60;87.20;;;;;;10320896;28;20441;-68
2023/07/21 23:47:15;;;;;;;7.47;3.88;;;18.60;87.20;;;;;;10323594;28;20031;-68
2023/07/21 23:52:17;;;;;;;9.68;4.47;;;18.60;87.20;;;;;;10326537;28;20262;-68
2023/07/21 23:57:18;;;;;;;7.53;4.10;;;18.50;87.00;;;;;;10316869;28;20578;-68
